Time;durP1;ratioP1;P1;durP2;ratioP2;P2;SDS_P1;SDS_P2;PMS_P1;PMS_P2;Temp;Humidity;BMP_temperature;BMP_pressure;BME280_temperature;BME280_humidity;BME280_pressure;Samples;Min_cycle;Max_cycle;Signal;HPM_P1;HPM_P2
2021/04/30 00:00:37;;;;;;;2.30;2.13;;;;;;;2.79;100.00;99812.56;5069044;28;20068;-76
2021/04/30 00:03:40;;;;;;;2.30;1.98;;;;;;;2.81;100.00;99812.91;5069920;28;20059;-76
2021/04/30 00:06:43;;;;;;;2.05;1.80;;;;;;;2.82;100.00;99815.22;5069710;28;20060;-76
2021/04/30 00:09:47;;;;;;;2.65;2.45;;;;;;;2.80;100.00;99820.38;5072325;28;20525;-76
2021/04/30 00:12:50;;;;;;;1.80;1.73;;;;;;;2.80;100.00;99817.63;5075001;28;20047;-76
2021/04/30 00:15:53;;;;;;;3.75;2.08;;;;;;;2.80;100.00;99817.63;5075799;28;20060;-76
2021/04/30 00:18:56;;;;;;;2.38;2.03;;;;;;;2.79;100.00;99818.84;5075485;28;20055;-76
2021/04/30 00:22:00;;;;;;;2.55;1.95;;;;;;;2.77;100.00;99818.47;5075388;28;20059;-76
2021/04/30 00:25:05;;;;;;;2.78;2.58;;;;;;;2.73;100.00;99817.00;5074679;28;20052;-76
2021/04/30 00:28:08;;;;;;;3.20;2.25;;;;;;;2.68;100.00;99815.53;5075021;28;20047;-76
2021/04/30 00:31:12;;;;;;;6.75;2.30;;;;;;;2.63;100.00;99818.75;5075373;28;20064;-76
2021/04/30 00:34:16;;;;;;;2.65;2.45;;;;;;;2.57;100.00;99814.97;5075343;28;20047;-76
2021/04/30 00:46:32;;;;;;;2.42;2.28;;;;;;;2.17;100.00;99810.59;5075382;28;20402;-76
2021/04/30 00:49:35;;;;;;;2.35;2.15;;;;;;;2.06;100.00;99807.25;5054631;28;20044;-76
2021/04/30 00:52:39;;;;;;;2.65;2.13;;;;;;;1.94;100.00;99814.16;5054937;28;20542;-76
2021/04/30 00:55:43;;;;;;;4.05;2.35;;;;;;;1.85;100.00;99813.13;5054770;28;20055;-75
2021/04/30 00:58:47;;;;;;;1.75;1.70;;;;;;;1.75;100.00;99814.88;5058855;28;20540;-76
2021/04/30 01:01:50;;;;;;;9.60;3.25;;;;;;;1.64;100.00;99810.72;5074782;28;20529;-76
2021/04/30 01:04:54;;;;;;;2.30;2.15;;;;;;;1.55;100.00;99811.25;5074436;28;20055;-76
2021/04/30 01:07:57;;;;;;;2.83;2.58;;;;;;;1.46;100.00;99811.78;5074497;28;20055;-75
2021/04/30 01:11:00;;;;;;;2.22;2.13;;;;;;;1.36;100.00;99809.22;5074517;28;20051;-76
2021/04/30 01:14:04;;;;;;;2.92;2.78;;;;;;;1.24;100.00;99807.78;5073841;28;20051;-76
2021/04/30 01:17:07;;;;;;;3.05;2.10;;;;;;;1.16;100.00;99811.06;5074365;28;20052;-76
2021/04/30 01:20:12;;;;;;;4.07;2.83;;;;;;;1.08;100.00;99815.09;5074296;28;20056;-75
2021/04/30 01:23:15;;;;;;;4.40;3.15;;;;;;;1.01;100.00;99810.47;5074157;28;20052;-76
2021/04/30 01:26:20;;;;;;;2.38;2.20;;;;;;;0.94;100.00;99810.56;5074439;28;20060;-75
2021/04/30 01:29:24;;;;;;;2.33;1.27;;;;;;;0.85;100.00;99802.06;5074307;28;20071;-75
2021/04/30 01:32:28;;;;;;;3.85;2.47;;;;;;;0.78;100.00;99811.16;5073699;28;20059;-75
2021/04/30 01:35:34;;;;;;;2.90;2.65;;;;;;;0.72;100.00;99814.75;5053965;28;20051;-76
2021/04/30 01:38:38;;;;;;;2.38;2.28;;;;;;;0.62;100.00;99807.44;5053150;28;20068;-76
2021/04/30 01:41:42;;;;;;;1.88;1.77;;;;;;;0.55;100.00;99815.75;5053976;28;20043;-76
2021/04/30 01:44:50;;;;;;;8.23;4.20;;;;;;;0.50;100.00;99818.91;5054042;28;20060;-76
2021/04/30 01:47:53;;;;;;;2.42;2.25;;;;;;;0.43;100.00;99816.28;5041622;28;20056;-76
2021/04/30 01:50:58;;;;;;;5.15;3.17;;;;;;;0.39;100.00;99818.28;5054526;28;20068;-76
2021/04/30 01:54:03;;;;;;;1.70;1.60;;;;;;;0.30;100.00;99809.78;5053973;28;20044;-77
2021/04/30 01:57:07;;;;;;;2.50;2.40;;;;;;;0.27;100.00;99816.06;5053364;28;20506;-76
2021/04/30 02:00:19;;;;;;;1.80;1.70;;;;;;;0.21;100.00;99817.69;5067941;28;20051;-76
2021/04/30 02:03:23;;;;;;;2.70;2.33;;;;;;;0.15;100.00;99819.31;5072897;28;20408;-77
2021/04/30 02:06:27;;;;;;;2.53;2.33;;;;;;;0.07;100.00;99823.28;5073746;28;20627;-76
2021/04/30 02:09:30;;;;;;;3.08;2.50;;;;;;;-0.04;100.00;99824.16;5073746;28;20394;-76
2021/04/30 02:12:34;;;;;;;2.55;2.35;;;;;;;-0.09;100.00;99818.38;5073332;28;20055;-76
2021/04/30 02:15:40;;;;;;;1.80;1.80;;;;;;;-0.15;100.00;99828.16;5073330;28;20055;-76
2021/04/30 02:18:43;;;;;;;2.33;2.22;;;;;;;-0.21;100.00;99816.91;5073490;28;20056;-76
2021/04/30 02:21:47;;;;;;;2.75;2.47;;;;;;;-0.26;100.00;99811.84;5073268;28;20052;-76
2021/04/30 02:24:50;;;;;;;4.15;3.25;;;;;;;-0.32;100.00;99829.88;5073480;28;20051;-76
2021/04/30 02:27:55;;;;;;;2.50;2.30;;;;;;;-0.38;100.00;99819.78;5072971;28;20047;-76
2021/04/30 02:30:59;;;;;;;3.05;2.85;;;;;;;-0.44;100.00;99816.69;5072853;28;20402;-76
2021/04/30 02:34:02;;;;;;;2.00;2.00;;;;;;;-0.47;100.00;99822.97;5073029;28;20075;-76
2021/04/30 02:37:06;;;;;;;2.72;2.55;;;;;;;-0.52;100.00;99819.88;5073079;28;20055;-76
2021/04/30 02:40:11;;;;;;;4.13;2.72;;;;;;;-0.52;100.00;99822.63;5072661;28;20509;-76
2021/04/30 02:43:18;;;;;;;3.97;3.38;;;;;;;-0.58;100.00;99826.94;5072825;28;20044;-76
2021/04/30 02:46:21;;;;;;;3.70;2.83;;;;;;;-0.64;100.00;99829.34;5072864;28;20056;-77
2021/04/30 02:49:39;;;;;;;2.08;2.08;;;;;;;-0.68;100.00;99830.53;5072530;28;20509;-76
2021/04/30 02:52:44;;;;;;;8.38;2.85;;;;;;;-0.72;100.00;99833.28;5072782;28;20070;-77
2021/04/30 02:55:47;;;;;;;3.95;3.17;;;;;;;-0.78;100.00;99826.69;5072585;28;20501;-76
2021/04/30 02:58:55;;;;;;;12.68;2.83;;;;;;;-0.82;100.00;99828.66;5071394;28;20051;-76
2021/04/30 03:01:58;;;;;;;2.60;2.55;;;;;;;-0.88;100.00;99827.53;5072459;28;20045;-76
2021/04/30 03:05:03;;;;;;;2.83;2.53;;;;;;;-0.91;100.00;99825.59;5071687;28;20055;-76
2021/04/30 03:08:06;;;;;;;4.85;1.90;;;;;;;-0.95;100.00;99822.09;5072243;28;20390;-76
2021/04/30 03:11:10;;;;;;;2.47;2.28;;;;;;;-0.99;100.00;99824.06;5072319;28;20513;-76
2021/04/30 03:14:13;;;;;;;2.53;2.40;;;;;;;-1.04;100.00;99821.78;5072442;28;20052;-76
2021/04/30 03:17:16;;;;;;;3.17;2.83;;;;;;;-1.05;100.00;99814.75;5072358;28;20048;-76
2021/04/30 03:20:20;;;;;;;6.80;2.58;;;;;;;-1.08;100.00;99810.06;5071990;28;20063;-76
2021/04/30 03:23:24;;;;;;;2.28;2.17;;;;;;;-1.12;100.00;99809.31;5072145;28;20075;-76
2021/04/30 03:26:27;;;;;;;3.38;2.65;;;;;;;-1.15;100.00;99815.56;5072251;28;20051;-76
2021/04/30 03:29:31;;;;;;;2.20;2.10;;;;;;;-1.20;100.00;99814.03;5072091;28;20055;-76
2021/04/30 03:32:35;;;;;;;1.48;1.48;;;;;;;-1.26;100.00;99815.63;5059214;28;20047;-76
2021/04/30 03:35:39;;;;;;;2.63;2.25;;;;;;;-1.29;100.00;99815.63;5071089;28;20068;-77
2021/04/30 03:38:42;;;;;;;2.35;2.25;;;;;;;-1.34;100.00;99810.59;5071073;28;20055;-76
2021/04/30 03:41:46;;;;;;;2.17;1.70;;;;;;;-1.32;100.00;99813.72;5071028;28;20051;-77
2021/04/30 03:44:49;;;;;;;2.65;2.47;;;;;;;-1.32;100.00;99806.25;5071319;28;20103;-76
2021/04/30 03:47:52;;;;;;;2.47;2.28;;;;;;;-1.31;100.00;99798.84;5071245;28;20048;-76
2021/04/30 03:50:56;;;;;;;2.47;2.22;;;;;;;-1.30;100.00;99808.63;5071828;28;20537;-76
2021/04/30 03:53:59;;;;;;;6.82;3.33;;;;;;;-1.31;100.00;99802.38;5072651;28;20064;-76
2021/04/30 03:57:03;;;;;;;2.00;1.98;;;;;;;-1.33;100.00;99803.94;5072083;28;20055;-77
2021/04/30 04:00:07;;;;;;;2.28;2.17;;;;;;;-1.35;100.00;99806.28;5071399;28;20406;-77
2021/04/30 04:03:11;;;;;;;2.55;2.38;;;;;;;-1.37;100.00;99808.66;5073961;28;20059;-77
2021/04/30 04:06:14;;;;;;;2.75;2.55;;;;;;;-1.40;100.00;99809.41;5071917;28;20051;-77
2021/04/30 04:09:18;;;;;;;6.18;3.40;;;;;;;-1.43;100.00;99802.81;5075207;28;20056;-77
2021/04/30 04:12:21;;;;;;;1.63;1.52;;;;;;;-1.46;100.00;99800.09;5070775;28;20111;-76
2021/04/30 04:15:24;;;;;;;3.22;2.42;;;;;;;-1.46;100.00;99811.00;5071746;28;20067;-76
2021/04/30 04:18:28;;;;;;;5.88;2.53;;;;;;;-1.49;100.00;99811.81;5071353;28;20055;-77
2021/04/30 04:21:32;;;;;;;3.25;3.15;;;;;;;-1.52;100.00;99812.59;5071505;28;20048;-77
2021/04/30 04:24:36;;;;;;;6.78;3.53;;;;;;;-1.57;100.00;99811.06;5071357;28;20046;-76
2021/04/30 04:27:39;;;;;;;2.05;2.05;;;;;;;-1.60;100.00;99809.88;5071372;28;20056;-76
2021/04/30 04:30:42;;;;;;;2.28;2.17;;;;;;;-1.62;100.00;99809.50;5071369;28;20052;-76
2021/04/30 04:33:46;;;;;;;2.10;2.00;;;;;;;-1.63;100.00;99821.63;5071257;28;20513;-76
2021/04/30 04:36:49;;;;;;;2.00;1.98;;;;;;;-1.65;100.00;99818.50;5071280;28;20051;-76
2021/04/30 04:39:53;;;;;;;3.17;2.95;;;;;;;-1.65;100.00;99823.97;5071180;28;20063;-76
2021/04/30 04:42:56;;;;;;;5.03;2.83;;;;;;;-1.66;100.00;99827.84;5071242;28;20068;-76
2021/04/30 04:46:00;;;;;;;2.33;2.13;;;;;;;-1.71;100.00;99833.69;5071051;28;20056;-76
2021/04/30 04:49:03;;;;;;;3.42;2.25;;;;;;;-1.70;100.00;99832.53;5071134;28;20060;-76
2021/04/30 04:52:07;;;;;;;2.60;1.85;;;;;;;-1.69;100.00;99830.59;5070078;28;20055;-76
2021/04/30 04:55:12;;;;;;;2.58;2.45;;;;;;;-1.70;100.00;99832.53;5071542;28;20524;-77
2021/04/30 04:58:16;;;;;;;5.93;2.20;;;;;;;-1.69;100.00;99827.88;5072999;28;20063;-75
2021/04/30 05:01:20;;;;;;;3.50;2.20;;;;;;;-1.69;100.00;99823.16;5072511;28;20059;-76
2021/04/30 05:04:23;;;;;;;6.50;3.25;;;;;;;-1.67;100.00;99831.75;5072229;28;20059;-75
2021/04/30 05:07:27;;;;;;;2.22;2.13;;;;;;;-1.62;100.00;99831.34;5071426;28;20055;-75
2021/04/30 05:10:31;;;;;;;3.38;3.08;;;;;;;-1.58;100.00;99832.09;5071635;28;20079;-75
2021/04/30 05:13:34;;;;;;;3.10;2.53;;;;;;;-1.53;100.00;99844.56;5071605;28;20608;-75
2021/04/30 05:16:38;;;;;;;7.78;2.85;;;;;;;-1.49;100.00;99844.59;5072254;28;20067;-76
2021/04/30 05:19:41;;;;;;;2.10;2.05;;;;;;;-1.45;100.00;99839.88;5071498;28;20071;-76
2021/04/30 05:22:45;;;;;;;2.00;1.90;;;;;;;-1.41;100.00;99843.38;5070589;28;20068;-75
2021/04/30 05:25:53;;;;;;;1.95;1.85;;;;;;;-1.41;100.00;99841.44;5071678;28;20056;-76
2021/04/30 05:28:58;;;;;;;2.00;1.90;;;;;;;-1.35;100.00;99842.59;5071537;28;20047;-76
2021/04/30 05:32:01;;;;;;;4.03;2.67;;;;;;;-1.28;100.00;99844.50;5071830;28;20063;-76
2021/04/30 05:35:05;;;;;;;2.40;2.28;;;;;;;-1.24;100.00;99846.06;5071219;28;20055;-76
2021/04/30 05:38:09;;;;;;;3.55;3.20;;;;;;;-1.15;100.00;99843.66;5071343;28;20051;-76
2021/04/30 05:41:12;;;;;;;2.83;2.17;;;;;;;-1.07;100.00;99847.94;5071236;28;20063;-76
2021/04/30 05:44:16;;;;;;;1.70;1.70;;;;;;;-0.97;100.00;99844.34;5070936;28;20059;-76
2021/04/30 05:47:23;;;;;;;1.42;1.42;;;;;;;-0.84;100.00;99850.16;5070753;28;20063;-77
2021/04/30 05:50:26;;;;;;;2.17;2.08;;;;;;;-0.73;100.00;99852.81;5068254;28;20123;-76
2021/04/30 05:53:29;;;;;;;3.95;2.35;;;;;;;-0.65;100.00;99846.91;5071219;28;20079;-76
2021/04/30 05:56:33;;;;;;;2.28;2.08;;;;;;;-0.54;100.00;99850.34;5071195;28;20116;-76
2021/04/30 05:59:37;;;;;;;2.00;1.90;;;;;;;-0.44;100.00;99859.69;5070134;28;20059;-76
2021/04/30 06:02:40;;;;;;;2.78;2.65;;;;;;;-0.37;100.00;99852.19;5071430;28;20083;-76
2021/04/30 06:05:43;;;;;;;3.92;2.65;;;;;;;-0.28;100.00;99857.97;5069839;28;20075;-77
2021/04/30 06:08:47;;;;;;;2.50;2.30;;;;;;;-0.22;100.00;99856.38;5070921;28;20419;-75
2021/04/30 06:11:51;;;;;;;2.15;2.08;;;;;;;-0.12;100.00;99861.00;5070856;28;20576;-75
2021/04/30 06:14:54;;;;;;;3.00;2.53;;;;;;;0.01;100.00;99858.53;5070233;28;20056;-75
2021/04/30 06:17:59;;;;;;;3.15;2.90;;;;;;;0.12;100.00;99861.19;5071463;28;20422;-75
2021/04/30 06:21:03;;;;;;;7.82;2.75;;;;;;;0.25;100.00;99859.50;5069931;28;20275;-76
2021/04/30 06:24:07;;;;;;;3.72;2.33;;;;;;;0.37;100.00;99856.25;5070519;28;20056;-76
2021/04/30 06:27:10;;;;;;;4.07;2.60;;;;;;;0.47;100.00;99863.59;5069632;28;20495;-76
2021/04/30 06:30:14;;;;;;;5.80;2.70;;;;;;;0.56;100.00;99861.16;5071877;28;20060;-76
2021/04/30 06:33:18;;;;;;;2.55;2.35;;;;;;;0.70;100.00;99863.72;5070769;28;20453;-76
2021/04/30 06:36:22;;;;;;;4.78;2.58;;;;;;;0.89;100.00;99863.09;5070449;28;20048;-76
2021/04/30 06:39:25;;;;;;;3.53;3.22;;;;;;;0.97;100.00;99863.81;5070050;28;20060;-76
2021/04/30 06:42:29;;;;;;;9.00;3.50;;;;;;;1.04;100.00;99866.47;5069809;28;20056;-76
2021/04/30 06:45:32;;;;;;;7.32;4.18;;;;;;;1.13;100.00;99864.75;5070905;28;20059;-76
2021/04/30 06:48:36;;;;;;;4.60;3.40;;;;;;;1.23;100.00;99861.13;5070075;28;20150;-76
2021/04/30 06:51:39;;;;;;;7.50;4.05;;;;;;;1.31;100.00;99862.56;5070246;28;20433;-76
2021/04/30 06:54:43;;;;;;;4.80;4.35;;;;;;;1.39;100.00;99869.50;5069581;28;20422;-76
2021/04/30 06:57:47;;;;;;;6.22;3.75;;;;;;;1.48;100.00;99868.97;5069884;28;20055;-76
2021/04/30 07:00:50;;;;;;;4.30;2.22;;;;;;;1.57;100.00;99863.75;5050301;28;20419;-76
2021/04/30 07:03:54;;;;;;;3.38;3.08;;;;;;;1.71;100.00;99862.78;5049779;28;20063;-76
2021/04/30 07:06:57;;;;;;;4.38;3.97;;;;;;;1.89;100.00;99857.75;5049910;28;20052;-77
2021/04/30 07:10:01;;;;;;;6.90;3.63;;;;;;;2.09;100.00;99866.88;5052617;28;20521;-75
2021/04/30 07:13:13;;;;;;;3.63;2.30;;;;;;;2.35;100.00;99863.28;5049614;28;20521;-76
2021/04/30 07:16:17;;;;;;;21.75;2.85;;;;;;;2.58;100.00;99860.47;5050092;28;20060;-77
2021/04/30 07:19:21;;;;;;;4.57;2.30;;;;;;;2.79;100.00;99865.59;5048858;28;20056;-77
2021/04/30 07:22:24;;;;;;;10.75;4.10;;;;;;;3.00;100.00;99859.66;5049833;28;20418;-76
2021/04/30 07:25:29;;;;;;;3.50;2.88;;;;;;;3.19;100.00;99860.03;5039722;28;20060;-78
2021/04/30 07:28:32;;;;;;;4.75;2.13;;;;;;;3.35;100.00;99857.34;5058999;28;20056;-78
2021/04/30 07:31:36;;;;;;;4.38;1.90;;;;;;;3.52;100.00;99847.91;5050187;28;20060;-78
2021/04/30 07:34:40;;;;;;;1.40;1.40;;;;;;;3.71;100.00;99852.59;5060184;28;20395;-78
2021/04/30 07:37:44;;;;;;;1.42;1.42;;;;;;;4.04;100.00;99854.16;5049472;28;20060;-78
2021/04/30 07:40:48;;;;;;;4.57;1.83;;;;;;;4.13;100.00;99843.31;5049513;28;20064;-78
2021/04/30 07:43:51;;;;;;;1.63;1.25;;;;;;;4.24;100.00;99849.31;5049284;28;20072;-78
2021/04/30 07:46:55;;;;;;;6.97;2.15;;;;;;;4.25;100.00;99848.09;5049548;28;20060;-78
2021/04/30 07:49:58;;;;;;;0.93;0.93;;;;;;;4.30;100.00;99855.84;5069071;28;20052;-78
2021/04/30 07:53:02;;;;;;;3.05;2.08;;;;;;;4.40;100.00;99842.97;5068894;28;20541;-78
2021/04/30 07:56:06;;;;;;;4.45;2.00;;;;;;;4.45;100.00;99846.00;5068669;28;20064;-78
2021/04/30 07:59:10;;;;;;;5.32;2.17;;;;;;;4.45;100.00;99840.50;5076314;28;20051;-78
2021/04/30 08:02:13;;;;;;;1.67;1.05;;;;;;;4.44;100.00;99838.19;5077184;28;20524;-78
2021/04/30 08:05:16;;;;;;;0.88;0.88;;;;;;;4.50;100.00;99837.19;5089257;28;20052;-78
2021/04/30 08:08:20;;;;;;;0.90;0.90;;;;;;;4.60;100.00;99836.13;5088347;28;20079;-78
2021/04/30 08:11:23;;;;;;;0.93;0.93;;;;;;;4.61;100.00;99834.91;5089240;28;20059;-79
2021/04/30 08:14:29;;;;;;;5.00;1.13;;;;;;;4.66;100.00;99832.84;5089581;28;20059;-78
2021/04/30 08:17:33;;;;;;;0.70;0.70;;;;;;;4.68;100.00;99825.66;5089134;28;20059;-79
2021/04/30 08:20:37;;;;;;;0.82;0.82;;;;;;;4.74;100.00;99840.50;5089131;28;20521;-78
2021/04/30 08:23:40;;;;;;;1.00;1.00;;;;;;;4.81;100.00;99834.00;5089157;28;20078;-79
2021/04/30 08:26:44;;;;;;;0.95;0.95;;;;;;;4.86;100.00;99828.72;5089031;28;20405;-78
2021/04/30 08:29:48;;;;;;;0.82;0.82;;;;;;;4.95;100.00;99828.06;5090164;28;20059;-78
2021/04/30 08:32:52;;;;;;;9.52;1.15;;;;;;;5.10;100.00;99830.00;5093599;28;20414;-80
2021/04/30 08:35:55;;;;;;;0.57;0.57;;;;;;;5.28;100.00;99821.19;5092584;28;20122;-77
2021/04/30 08:38:58;;;;;;;1.45;1.42;;;;;;;5.55;100.00;99827.03;5080810;28;20078;-77
2021/04/30 08:42:02;;;;;;;8.68;1.63;;;;;;;5.78;100.00;99823.94;5093467;28;20055;-78
2021/04/30 08:45:11;;;;;;;0.60;0.60;;;;;;;6.08;100.00;99837.22;5093323;28;20059;-80
2021/04/30 08:48:15;;;;;;;0.80;0.80;;;;;;;6.27;100.00;99835.38;5093521;28;20044;-78
2021/04/30 08:51:18;;;;;;;0.80;0.80;;;;;;;6.52;100.00;99832.53;5072288;28;20524;-78
2021/04/30 08:54:22;;;;;;;1.17;0.80;;;;;;;6.78;100.00;99838.72;5072955;28;20067;-78
2021/04/30 08:57:26;;;;;;;0.60;0.60;;;;;;;6.88;100.00;99832.81;5073049;28;20063;-78
2021/04/30 09:00:30;;;;;;;3.08;1.23;;;;;;;6.78;100.00;99833.19;5073486;28;20055;-79
2021/04/30 09:03:35;;;;;;;2.88;0.75;;;;;;;6.95;100.00;99831.00;5072493;28;20059;-78
2021/04/30 09:06:41;;;;;;;1.00;1.00;;;;;;;7.12;100.00;99830.34;5079299;28;20072;-78
2021/04/30 09:10:05;;;;;;;0.60;0.60;;;;;;;7.17;100.00;99832.53;5077517;28;20060;-77
2021/04/30 09:13:12;;;;;;;0.60;0.60;;;;;;;7.39;100.00;99832.47;5072158;28;20528;-79
2021/04/30 09:16:16;;;;;;;0.50;0.50;;;;;;;7.55;100.00;99833.03;5072891;28;20060;-80
2021/04/30 09:19:34;;;;;;;1.35;0.80;;;;;;;8.08;100.00;99827.34;5071536;28;20541;-78
2021/04/30 09:22:41;;;;;;;0.30;0.30;;;;;;;8.65;100.00;99831.28;5072704;28;20071;-78
2021/04/30 09:25:44;;;;;;;3.50;0.35;;;;;;;8.96;100.00;99829.88;5072244;28;20067;-78
2021/04/30 09:28:58;;;;;;;1.67;0.38;;;;;;;9.23;100.00;99825.47;5070323;28;20075;-78
2021/04/30 09:32:02;;;;;;;0.70;0.40;;;;;;;9.38;100.00;99821.59;5072253;28;20063;-78
2021/04/30 09:35:06;;;;;;;0.80;0.45;;;;;;;9.29;100.00;99823.66;5071605;28;20424;-78
2021/04/30 09:38:17;;;;;;;6.32;0.70;;;;;;;8.86;100.00;99824.78;5071816;28;20059;-75
2021/04/30 09:41:21;;;;;;;1.25;0.30;;;;;;;8.45;100.00;99823.41;5071311;28;20075;-75
2021/04/30 09:44:37;;;;;;;1.60;1.17;;;;;;;8.08;100.00;99835.66;5072023;28;20064;-76
2021/04/30 09:47:44;;;;;;;4.88;0.73;;;;;;;7.96;100.00;99831.00;5072316;28;20501;-76
2021/04/30 09:50:47;;;;;;;4.40;0.68;;;;;;;8.54;100.00;99820.66;5071452;28;20123;-76
2021/04/30 09:53:50;;;;;;;1.38;1.10;;;;;;;9.28;100.00;99811.75;5071803;28;20051;-76
2021/04/30 09:57:15;;;;;;;2.08;0.55;;;;;;;9.82;100.00;99813.53;5071602;28;20536;-76
2021/04/30 10:00:19;;;;;;;6.43;0.50;;;;;;;9.67;100.00;99813.47;5071595;28;20429;-76
2021/04/30 10:03:27;;;;;;;0.52;0.20;;;;;;;9.59;100.00;99820.59;5071867;28;20521;-76
2021/04/30 10:06:31;;;;;;;0.32;0.15;;;;;;;9.45;100.00;99812.16;5071918;28;20416;-76
2021/04/30 10:09:36;;;;;;;9.32;0.63;;;;;;;9.14;100.00;99818.72;5071600;28;20063;-76
2021/04/30 10:12:43;;;;;;;2.20;0.65;;;;;;;8.88;100.00;99823.09;5071339;28;20060;-76
2021/04/30 10:15:47;;;;;;;3.78;0.75;;;;;;;8.79;100.00;99816.78;5071822;28;20059;-76
2021/04/30 10:18:50;;;;;;;2.17;0.52;;;;;;;8.94;100.00;99820.47;5070993;28;20051;-76
2021/04/30 10:21:54;;;;;;;3.40;0.90;;;;;;;9.04;100.00;99814.44;5058595;28;20071;-76
2021/04/30 10:24:59;;;;;;;2.78;1.20;;;;;;;9.09;100.00;99805.47;5071448;28;20063;-76
2021/04/30 10:28:04;;;;;;;1.92;0.85;;;;;;;9.20;100.00;99813.31;5071064;28;20166;-76
2021/04/30 10:31:15;;;;;;;0.63;0.60;;;;;;;9.39;100.00;99811.25;5071969;28;20110;-76
2021/04/30 10:34:25;;;;;;;2.53;0.43;;;;;;;9.61;100.00;99812.56;5070387;28;20417;-77
2021/04/30 10:37:31;;;;;;;0.73;0.73;;;;;;;9.79;100.00;99806.13;5071258;28;20418;-77
2021/04/30 10:40:49;;;;;;;2.95;0.80;;;;;;;9.79;100.00;99806.13;5070543;28;20055;-76
2021/04/30 10:44:17;;;;;;;0.35;0.35;;;;;;;9.75;100.00;99813.88;5071053;28;20414;-76
2021/04/30 10:47:20;;;;;;;0.70;0.30;;;;;;;9.59;100.00;99803.16;5072592;28;20130;-77
2021/04/30 10:50:23;;;;;;;5.28;1.20;;;;;;;9.53;100.00;99816.91;5089686;28;20063;-76
2021/04/30 10:53:29;;;;;;;4.38;0.93;;;;;;;9.43;100.00;99806.28;5090598;28;20062;-76
2021/04/30 10:56:34;;;;;;;1.13;0.50;;;;;;;9.35;100.00;99810.66;5091076;28;20059;-76
2021/04/30 10:59:40;;;;;;;0.32;0.20;;;;;;;9.32;100.00;99806.00;5078998;28;20214;-76
2021/04/30 11:02:44;;;;;;;0.85;0.60;;;;;;;9.36;100.00;99806.63;5070425;28;20537;-75
2021/04/30 11:05:54;;;;;;;1.15;0.28;;;;;;;9.46;100.00;99817.25;5070574;28;20068;-76
2021/04/30 11:09:01;;;;;;;3.28;0.43;;;;;;;9.51;100.00;99813.81;5070502;28;20059;-76
2021/04/30 11:12:21;;;;;;;0.82;0.32;;;;;;;9.65;100.00;99812.38;5069840;28;20060;-77
2021/04/30 11:15:26;;;;;;;5.68;0.60;;;;;;;9.67;100.00;99815.47;5070566;28;20083;-77
2021/04/30 11:18:30;;;;;;;3.28;0.50;;;;;;;9.79;100.00;99812.47;5070753;28;20064;-77
2021/04/30 11:21:45;;;;;;;0.20;0.20;;;;;;;9.71;100.00;99804.94;5070586;28;20052;-75
2021/04/30 11:24:57;;;;;;;4.90;1.20;;;;;;;9.56;100.00;99806.84;5070189;28;20063;-74
2021/04/30 11:28:01;;;;;;;2.75;0.45;;;;;;;9.51;100.00;99810.25;5069831;28;20059;-75
2021/04/30 11:31:15;;;;;;;0.52;0.52;;;;;;;9.54;100.00;99807.34;5081490;28;20838;-75
2021/04/30 11:34:20;;;;;;;1.00;0.43;;;;;;;9.51;100.00;99808.25;5069716;28;20521;-76
2021/04/30 11:37:25;;;;;;;0.57;0.40;;;;;;;9.42;100.00;99799.22;5070328;28;20060;-75
2021/04/30 11:40:28;;;;;;;2.92;0.57;;;;;;;9.62;100.00;99802.19;5069667;28;20057;-76
2021/04/30 11:43:32;;;;;;;1.13;0.55;;;;;;;9.87;100.00;99807.34;5069888;28;20060;-75
2021/04/30 11:46:38;;;;;;;1.15;0.30;;;;;;;10.09;100.00;99805.03;5070670;28;20063;-77
2021/04/30 11:49:41;;;;;;;3.22;0.30;;;;;;;10.48;100.00;99806.63;5090283;28;20063;-77
2021/04/30 11:52:45;;;;;;;0.88;0.22;;;;;;;10.64;100.00;99800.63;5090281;28;20075;-77
2021/04/30 11:55:50;;;;;;;0.30;0.30;;;;;;;10.90;100.00;99802.88;5089997;28;20075;-76
2021/04/30 11:58:54;;;;;;;0.73;0.30;;;;;;;10.90;100.00;99802.88;5071966;28;20051;-76
2021/04/30 12:02:04;;;;;;;1.48;0.50;;;;;;;10.39;100.00;99803.16;5069394;28;20414;-76
2021/04/30 12:05:08;;;;;;;0.25;0.22;;;;;;;9.86;100.00;99811.34;5072517;28;20060;-76
2021/04/30 12:08:12;;;;;;;0.40;0.40;;;;;;;9.30;100.00;99809.28;5073799;28;20056;-76
2021/04/30 12:11:27;;;;;;;0.47;0.47;;;;;;;8.72;100.00;99804.00;5074332;28;20068;-77
2021/04/30 12:14:31;;;;;;;0.88;0.88;;;;;;;8.30;100.00;99803.84;5072974;28;20056;-77
2021/04/30 12:17:40;;;;;;;0.45;0.43;;;;;;;7.97;100.00;99811.13;5073616;28;20560;-77
2021/04/30 12:20:58;;;;;;;2.47;0.68;;;;;;;7.76;100.00;99811.22;5075115;28;20068;-78
2021/04/30 12:24:05;;;;;;;0.60;0.60;;;;;;;7.70;100.00;99801.97;5079923;28;20412;-76
2021/04/30 12:27:08;;;;;;;0.60;0.60;;;;;;;7.68;100.00;99809.97;5093746;28;20071;-78
2021/04/30 12:30:13;;;;;;;0.50;0.50;;;;;;;7.76;100.00;99800.16;5093905;28;20054;-77
2021/04/30 12:33:25;;;;;;;0.47;0.45;;;;;;;7.84;100.00;99802.16;5095866;28;20067;-77
2021/04/30 12:36:33;;;;;;;0.60;0.60;;;;;;;7.82;100.00;99807.41;5095217;28;20055;-77
2021/04/30 12:39:36;;;;;;;0.93;0.90;;;;;;;7.76;100.00;99806.47;5095450;28;20075;-78
2021/04/30 12:42:50;;;;;;;0.90;0.52;;;;;;;7.71;100.00;99809.81;5094218;28;20063;-78
2021/04/30 12:45:55;;;;;;;1.15;1.10;;;;;;;7.76;100.00;99805.69;5095925;28;20082;-77
2021/04/30 12:49:06;;;;;;;4.55;1.10;;;;;;;7.71;100.00;99812.59;5096233;28;20070;-77
2021/04/30 12:52:10;;;;;;;3.03;0.63;;;;;;;7.64;100.00;99805.34;5104215;28;20520;-77
2021/04/30 12:55:29;;;;;;;0.22;0.22;;;;;;;7.54;100.00;99812.09;5125237;27;20055;-77
2021/04/30 12:58:32;;;;;;;1.20;1.15;;;;;;;7.43;100.00;99819.25;5090500;28;20517;-75
2021/04/30 13:01:40;;;;;;;1.30;0.20;;;;;;;7.30;100.00;99819.34;5073477;28;20063;-76
2021/04/30 13:04:46;;;;;;;0.63;0.63;;;;;;;7.13;100.00;99826.34;5086534;28;20079;-76
2021/04/30 13:07:52;;;;;;;0.70;0.70;;;;;;;6.96;100.00;99827.00;5053210;28;20067;-77
2021/04/30 13:11:01;;;;;;;1.58;0.45;;;;;;;6.95;100.00;99820.72;5072036;28;20063;-76
2021/04/30 13:14:11;;;;;;;1.42;1.10;;;;;;;7.05;100.00;99814.00;5071471;28;20063;-76
2021/04/30 13:17:20;;;;;;;0.95;0.95;;;;;;;7.22;100.00;99818.09;5072772;28;20068;-77
2021/04/30 13:20:31;;;;;;;2.70;0.90;;;;;;;7.46;100.00;99810.06;5072172;28;20064;-76
2021/04/30 13:23:40;;;;;;;2.50;1.10;;;;;;;8.17;100.00;99805.16;5071292;28;20067;-76
2021/04/30 13:26:55;;;;;;;0.88;0.65;;;;;;;9.09;100.00;99815.81;5073290;28;20055;-77
2021/04/30 13:29:58;;;;;;;2.05;0.80;;;;;;;9.42;100.00;99819.41;5072194;28;20071;-77
2021/04/30 13:33:38;;;;;;;3.50;1.25;;;;;;;9.24;100.00;99807.59;5074105;28;20076;-76
2021/04/30 13:36:53;;;;;;;1.30;0.73;;;;;;;8.66;100.00;99830.84;5072547;28;20068;-78
2021/04/30 13:40:03;;;;;;;0.68;0.68;;;;;;;7.98;100.00;99829.31;5073606;28;20060;-77
2021/04/30 13:43:07;;;;;;;1.17;1.08;;;;;;;7.50;100.00;99817.00;5073166;28;20060;-77
2021/04/30 13:46:15;;;;;;;4.57;0.85;;;;;;;7.27;100.00;99814.75;5072376;28;20056;-77
2021/04/30 13:49:19;;;;;;;0.85;0.57;;;;;;;7.14;100.00;99808.53;5043832;28;20076;-77
2021/04/30 13:52:23;;;;;;;1.60;0.80;;;;;;;7.01;100.00;99796.75;5071952;28;20552;-77
2021/04/30 13:55:27;;;;;;;0.75;0.75;;;;;;;6.97;100.00;99796.13;5072207;28;20410;-77
2021/04/30 13:58:32;;;;;;;0.80;0.80;;;;;;;6.97;100.00;99803.66;5072382;28;20075;-77
2021/04/30 14:01:35;;;;;;;3.53;1.00;;;;;;;7.06;100.00;99798.91;5072863;28;20064;-77
2021/04/30 14:04:40;;;;;;;1.73;1.08;;;;;;;7.12;100.00;99797.13;5071806;28;20064;-77
2021/04/30 14:07:44;;;;;;;1.30;1.17;;;;;;;7.22;100.00;99795.94;5071918;28;20081;-77
2021/04/30 14:10:49;;;;;;;1.95;1.25;;;;;;;7.28;100.00;99794.13;5073667;28;20060;-77
2021/04/30 14:13:53;;;;;;;2.42;0.98;;;;;;;7.42;100.00;99785.25;5071297;28;20060;-78
2021/04/30 14:16:56;;;;;;;2.00;1.45;;;;;;;7.57;100.00;99782.69;5072288;28;20079;-77
2021/04/30 14:20:00;;;;;;;3.80;1.63;;;;;;;7.69;100.00;99773.47;5072121;28;20060;-77
2021/04/30 14:23:03;;;;;;;1.55;1.08;;;;;;;7.82;100.00;99773.38;5071845;28;20068;-78
2021/04/30 14:26:08;;;;;;;2.28;1.35;;;;;;;8.06;100.00;99763.22;5071117;28;20063;-77
2021/04/30 14:29:12;;;;;;;1.80;0.95;;;;;;;8.16;100.00;99762.03;5071534;28;20071;-77
2021/04/30 14:32:15;;;;;;;0.60;0.50;;;;;;;8.33;100.00;99746.66;5071821;28;20063;-78
2021/04/30 14:35:19;;;;;;;6.82;1.02;;;;;;;8.49;100.00;99751.88;5070110;28;20060;-78
2021/04/30 14:38:22;;;;;;;1.83;1.02;;;;;;;8.56;100.00;99754.34;5071925;28;20059;-78